createdAt,value
2022-11-01T00:01:08.003Z,1.00
2022-11-01T00:03:34.787Z,1.00
2022-11-01T00:06:01.698Z,1.00
2022-11-01T00:08:28.568Z,1.00
2022-11-01T00:11:03.182Z,1.00
2022-11-01T00:13:29.843Z,1.00
2022-11-01T00:15:56.520Z,1.00
2022-11-01T00:18:24.447Z,1.00
2022-11-01T00:20:51.292Z,1.00
2022-11-01T00:23:18.537Z,1.00
2022-11-01T00:25:45.242Z,1.00
2022-11-01T00:28:12.201Z,1.00
2022-11-01T00:30:40.353Z,1.00
2022-11-01T00:33:07.725Z,1.00
2022-11-01T00:35:38.412Z,1.00
2022-11-01T00:38:06.143Z,1.00
2022-11-01T00:40:33.161Z,1.00
2022-11-01T00:42:59.968Z,1.00
2022-11-01T00:45:26.792Z,1.00
2022-11-01T00:47:53.648Z,1.00
2022-11-01T00:50:20.322Z,1.00
2022-11-01T00:52:47.403Z,1.00
2022-11-01T00:55:14.277Z,1.00
2022-11-01T00:57:41.694Z,1.00
2022-11-01T01:00:09.195Z,1.00
2022-11-01T01:02:35.971Z,1.00
2022-11-01T01:05:02.796Z,1.00
2022-11-01T01:07:29.450Z,1.00
2022-11-01T01:09:56.169Z,1.00
2022-11-01T01:12:23.150Z,1.00
2022-11-01T01:14:49.816Z,1.00
2022-11-01T01:17:16.769Z,1.00
2022-11-01T01:19:43.611Z,1.00
2022-11-01T01:22:10.321Z,1.00
2022-11-01T01:24:37.224Z,1.00
2022-11-01T01:27:03.945Z,1.00
2022-11-01T01:29:30.746Z,1.00
2022-11-01T01:31:57.407Z,1.00
2022-11-01T01:34:24.069Z,1.00
2022-11-01T01:36:50.726Z,1.00
2022-11-01T01:39:17.410Z,1.00
2022-11-01T01:41:56.261Z,1.00
2022-11-01T01:45:23.733Z,1.00
2022-11-01T01:47:53.012Z,1.00
2022-11-01T01:50:19.635Z,1.00
2022-11-01T01:53:03.662Z,1.00
2022-11-01T01:55:46.430Z,1.00
2022-11-01T01:58:16.781Z,1.00
2022-11-01T02:00:44.489Z,1.00
2022-11-01T02:03:12.296Z,1.00
2022-11-01T02:05:53.231Z,1.00
2022-11-01T02:08:27.687Z,1.00
2022-11-01T02:11:01.172Z,1.00
2022-11-01T02:13:29.670Z,1.00
2022-11-01T02:16:01.674Z,1.00
2022-11-01T02:18:50.893Z,1.00
2022-11-01T02:21:29.611Z,1.00
2022-11-01T02:24:30.538Z,1.00
2022-11-01T02:27:14.279Z,1.00
2022-11-01T02:29:40.898Z,1.00
2022-11-01T02:32:32.742Z,1.00
2022-11-01T02:35:28.641Z,1.00
2022-11-01T02:38:08.650Z,1.00
2022-11-01T02:40:38.942Z,1.00
2022-11-01T02:43:18.260Z,1.00
2022-11-01T02:45:50.043Z,1.00
2022-11-01T02:48:20.877Z,1.00
2022-11-01T02:50:56.312Z,1.00
2022-11-01T02:53:23.391Z,1.00
2022-11-01T02:55:53.792Z,1.00
2022-11-01T02:58:26.116Z,1.00
2022-11-01T03:00:53.013Z,1.00
2022-11-01T03:03:23.670Z,1.00
2022-11-01T03:06:08.883Z,1.00
2022-11-01T03:08:44.499Z,1.00
2022-11-01T03:11:17.561Z,1.00
2022-11-01T03:14:14.134Z,1.00
2022-11-01T03:17:00.386Z,1.00
2022-11-01T03:19:32.661Z,1.00
2022-11-01T03:22:11.541Z,1.00
2022-11-01T03:25:27.280Z,1.00
2022-11-01T03:27:56.440Z,1.00
2022-11-01T03:30:23.167Z,1.00
2022-11-01T03:32:54.898Z,1.00
2022-11-01T03:35:25.868Z,1.00
2022-11-01T03:37:58.532Z,1.00
2022-11-01T03:40:28.693Z,1.00
2022-11-01T03:43:02.612Z,1.00
2022-11-01T03:45:32.565Z,1.00
2022-11-01T03:48:00.998Z,1.00
2022-11-01T03:50:29.348Z,1.00
2022-11-01T03:52:56.085Z,1.00
2022-11-01T03:55:23.441Z,1.00
2022-11-01T03:57:52.636Z,1.00
2022-11-01T04:00:19.331Z,1.00
2022-11-01T04:02:46.051Z,1.00
2022-11-01T04:05:13.570Z,1.00
2022-11-01T04:07:40.539Z,1.00
2022-11-01T04:10:07.834Z,1.00
2022-11-01T04:12:34.500Z,1.00
2022-11-01T04:15:19.942Z,1.00
2022-11-01T04:18:05.222Z,1.00
2022-11-01T04:20:36.141Z,1.00
2022-11-01T04:23:07.062Z,1.00
2022-11-01T04:25:35.001Z,1.00
2022-11-01T04:28:01.713Z,1.00
2022-11-01T04:30:30.090Z,1.00
2022-11-01T04:32:56.801Z,1.00
2022-11-01T04:35:24.141Z,1.00
2022-11-01T04:37:57.534Z,1.00
2022-11-01T04:40:25.322Z,1.00
2022-11-01T04:42:55.333Z,1.00
2022-11-01T04:45:22.253Z,1.00
2022-11-01T04:47:52.487Z,1.00
2022-11-01T04:50:22.253Z,1.00
2022-11-01T04:52:48.964Z,1.00
2022-11-01T04:55:15.764Z,1.00
2022-11-01T04:57:43.075Z,1.00
2022-11-01T05:00:12.128Z,1.00
2022-11-01T05:02:40.192Z,1.00
2022-11-01T05:05:08.950Z,1.00
2022-11-01T05:07:36.221Z,1.00
2022-11-01T05:10:03.776Z,1.00
2022-11-01T05:12:30.868Z,1.00
2022-11-01T05:14:57.521Z,1.00
2022-11-01T05:17:24.326Z,1.00
2022-11-01T05:19:51.027Z,1.00
2022-11-01T05:22:17.977Z,1.00
2022-11-01T05:24:45.111Z,1.00
2022-11-01T05:27:11.819Z,1.00
2022-11-01T05:29:38.474Z,1.00
2022-11-01T05:32:05.264Z,1.00
2022-11-01T05:34:31.996Z,1.00
2022-11-01T05:36:58.661Z,1.00
2022-11-01T05:39:25.340Z,1.00
2022-11-01T05:41:52.013Z,1.00
2022-11-01T05:44:18.893Z,1.00
2022-11-01T05:46:45.551Z,1.00
2022-11-01T05:49:12.206Z,1.00
2022-11-01T05:51:39.260Z,1.00
2022-11-01T05:54:06.166Z,1.00
2022-11-01T05:56:32.830Z,1.00
2022-11-01T05:58:59.502Z,1.00
2022-11-01T06:01:26.261Z,1.00
2022-11-01T06:03:53.085Z,1.00
2022-11-01T06:06:19.744Z,1.00
2022-11-01T06:08:46.421Z,1.00
2022-11-01T06:11:13.308Z,1.00
2022-11-01T06:13:40.143Z,1.00
2022-11-01T06:16:07.464Z,1.00
2022-11-01T06:18:34.224Z,1.00
2022-11-01T06:21:00.954Z,1.00
2022-11-01T06:23:27.620Z,1.00
2022-11-01T06:26:04.852Z,1.00
2022-11-01T06:28:32.086Z,1.00
2022-11-01T06:33:31.453Z,1.00
2022-11-01T06:35:58.193Z,1.00
2022-11-01T06:38:24.854Z,1.00
2022-11-01T06:40:51.547Z,1.00
2022-11-01T06:43:18.212Z,1.00
2022-11-01T06:45:44.914Z,1.00
2022-11-01T06:48:11.651Z,1.00
2022-11-01T06:50:38.344Z,1.00
2022-11-01T06:53:05.011Z,1.00
2022-11-01T06:55:32.965Z,1.00
2022-11-01T06:58:01.688Z,1.00
2022-11-01T07:00:29.774Z,1.00
2022-11-01T07:03:08.091Z,1.00
2022-11-01T07:05:37.538Z,1.00
2022-11-01T07:08:07.161Z,1.00
2022-11-01T07:10:35.564Z,1.00
2022-11-01T07:13:04.379Z,1.00
2022-11-01T07:15:31.846Z,1.00
2022-11-01T07:18:00.880Z,1.00
2022-11-01T07:20:29.277Z,1.00
2022-11-01T07:23:01.189Z,1.00
2022-11-01T07:25:29.098Z,1.00
2022-11-01T07:27:56.207Z,1.00
2022-11-01T07:30:23.444Z,1.00
2022-11-01T07:32:58.644Z,1.00
2022-11-01T07:35:26.887Z,1.00
2022-11-01T07:37:57.047Z,1.00
2022-11-01T07:40:27.651Z,1.00
2022-11-01T07:43:01.106Z,1.00
2022-11-01T07:45:30.118Z,1.00
2022-11-01T07:48:02.766Z,1.00
2022-11-01T07:50:31.436Z,1.00
2022-11-01T07:53:02.361Z,1.00
2022-11-01T07:55:29.147Z,1.00
2022-11-01T07:57:56.183Z,1.00
2022-11-01T08:00:23.932Z,1.00
2022-11-01T08:02:50.882Z,1.00
2022-11-01T08:05:17.967Z,1.00
2022-11-01T08:07:44.654Z,1.00
2022-11-01T08:10:12.409Z,1.00
2022-11-01T08:12:39.175Z,1.00
2022-11-01T08:15:06.842Z,1.00
2022-11-01T08:17:34.598Z,1.00
2022-11-01T08:20:01.656Z,1.00
2022-11-01T08:22:28.394Z,1.00
2022-11-01T08:24:55.284Z,1.00
2022-11-01T08:27:22.228Z,1.00
2022-11-01T08:29:48.893Z,1.00
2022-11-01T08:32:20.238Z,1.00
2022-11-01T08:34:47.175Z,1.00
2022-11-01T08:37:14.478Z,1.00
2022-11-01T08:39:41.145Z,1.00
2022-11-01T08:42:09.472Z,1.00
2022-11-01T08:44:36.201Z,1.00
2022-11-01T08:47:02.886Z,1.00
2022-11-01T08:49:29.578Z,1.00
2022-11-01T08:51:56.339Z,1.00
2022-11-01T08:54:23.276Z,1.00
2022-11-01T08:56:50.073Z,1.00
2022-11-01T08:59:17.440Z,99.90
2022-11-01T09:01:44.298Z,1.00
2022-11-01T09:04:11.134Z,24.20
2022-11-01T09:06:37.950Z,1.00
2022-11-01T09:09:06.833Z,1.00
2022-11-01T09:11:37.362Z,1.00
2022-11-01T09:14:04.310Z,1.00
2022-11-01T09:16:32.740Z,1.00
2022-11-01T09:19:01.698Z,1.00
2022-11-01T09:21:32.240Z,1.00
2022-11-01T09:23:59.224Z,1.00
2022-11-01T09:26:29.213Z,1.00
2022-11-01T09:28:58.506Z,1.00
2022-11-01T09:31:25.484Z,1.00
2022-11-01T09:33:56.048Z,1.00
2022-11-01T09:36:23.578Z,1.00
2022-11-01T09:38:50.755Z,99.90
2022-11-01T09:41:35.041Z,99.90
2022-11-01T09:44:04.949Z,1.00
2022-11-01T09:46:48.534Z,1.00
2022-11-01T09:49:25.366Z,1.00
2022-11-01T09:51:52.252Z,1.00
2022-11-01T09:54:22.468Z,1.00
2022-11-01T09:57:22.201Z,1.00
2022-11-01T09:59:48.836Z,1.00
2022-11-01T10:02:52.316Z,36.10
2022-11-01T10:06:02.073Z,79.80
2022-11-01T10:08:54.308Z,88.80
2022-11-01T10:11:52.010Z,90.90
2022-11-01T10:14:33.972Z,91.60
2022-11-01T10:17:40.764Z,91.80
2022-11-01T10:20:11.967Z,92.00
2022-11-01T10:22:40.082Z,92.00
2022-11-01T10:25:06.939Z,92.30
2022-11-01T10:27:37.410Z,92.40
2022-11-01T10:30:19.001Z,92.40
2022-11-01T10:32:58.485Z,92.40
2022-11-01T10:35:32.297Z,92.40
2022-11-01T10:38:30.151Z,93.00
2022-11-01T10:41:14.858Z,92.80
2022-11-01T10:43:45.434Z,92.90
2022-11-01T10:46:20.379Z,92.90
2022-11-01T10:48:55.271Z,92.90
2022-11-01T10:51:27.827Z,92.90
2022-11-01T10:54:00.410Z,93.00
2022-11-01T10:56:36.330Z,93.00
2022-11-01T10:59:04.438Z,93.00
2022-11-01T11:01:39.160Z,93.00
2022-11-01T11:04:11.199Z,93.00
2022-11-01T11:06:40.273Z,93.00
2022-11-01T11:09:18.489Z,93.00
2022-11-01T11:11:46.589Z,93.00
2022-11-01T11:14:14.268Z,92.90
2022-11-01T11:16:56.811Z,93.00
2022-11-01T11:19:29.522Z,93.10
2022-11-01T11:21:57.841Z,93.00
2022-11-01T11:24:36.958Z,92.90
2022-11-01T11:27:11.644Z,92.80
2022-11-01T11:29:53.874Z,92.80
2022-11-01T11:32:38.522Z,92.90
2022-11-01T11:35:14.044Z,92.90
2022-11-01T11:38:10.066Z,92.90
2022-11-01T11:40:40.690Z,92.90
2022-11-01T11:43:25.969Z,92.90
2022-11-01T11:46:08.555Z,93.00
2022-11-01T11:48:50.862Z,92.90
2022-11-01T11:51:18.332Z,93.00
2022-11-01T11:54:05.714Z,92.90
2022-11-01T11:56:32.525Z,92.90
2022-11-01T11:59:08.534Z,93.00
2022-11-01T12:01:35.743Z,93.10
2022-11-01T12:04:09.640Z,93.10
2022-11-01T12:06:43.940Z,93.00
2022-11-01T12:09:33.985Z,93.10
2022-11-01T12:12:19.239Z,93.10
2022-11-01T12:14:46.243Z,93.10
2022-11-01T12:17:31.676Z,93.10
2022-11-01T12:20:21.099Z,93.20
2022-11-01T12:22:50.889Z,93.20
2022-11-01T12:25:23.820Z,93.20
2022-11-01T12:28:02.558Z,93.30
2022-11-01T12:30:33.632Z,93.30
2022-11-01T12:33:07.093Z,93.30
2022-11-01T12:35:41.195Z,93.40
2022-11-01T12:38:45.573Z,93.30
2022-11-01T12:41:31.094Z,93.30
2022-11-01T12:44:05.758Z,93.30
2022-11-01T12:46:46.950Z,93.30
2022-11-01T12:49:21.147Z,93.30
2022-11-01T12:51:52.456Z,93.20
2022-11-01T12:54:30.252Z,93.20
2022-11-01T12:56:57.032Z,93.10
2022-11-01T12:59:31.651Z,93.10
2022-11-01T13:02:13.693Z,93.10
2022-11-01T13:05:20.916Z,93.00
2022-11-01T13:08:24.389Z,93.10
2022-11-01T13:10:52.167Z,93.00
2022-11-01T13:13:40.218Z,93.00
2022-11-01T13:16:16.039Z,93.30
2022-11-01T13:18:51.969Z,92.90
2022-11-01T13:21:21.603Z,92.90
2022-11-01T13:23:58.619Z,92.90
2022-11-01T13:26:42.347Z,92.90
2022-11-01T13:29:17.387Z,93.00
2022-11-01T13:32:10.586Z,93.00
2022-11-01T13:34:47.119Z,93.10
2022-11-01T13:37:19.418Z,93.10
2022-11-01T13:40:07.359Z,93.10
2022-11-01T13:42:46.247Z,93.10
2022-11-01T13:45:12.881Z,93.10
2022-11-01T13:48:17.628Z,93.20
2022-11-01T13:50:49.086Z,93.10
2022-11-01T13:53:30.216Z,93.20
2022-11-01T13:56:15.230Z,93.20
2022-11-01T13:58:42.002Z,93.30
2022-11-01T14:01:30.553Z,93.20
2022-11-01T14:04:18.911Z,93.20
2022-11-01T14:07:10.687Z,93.20
2022-11-01T14:09:44.963Z,93.30
2022-11-01T14:12:29.503Z,93.30
2022-11-01T14:15:11.832Z,93.30
2022-11-01T14:17:51.286Z,93.30
2022-11-01T14:20:23.619Z,93.70
2022-11-01T14:22:50.307Z,93.40
2022-11-01T14:25:16.975Z,93.40
2022-11-01T14:27:50.543Z,93.40
2022-11-01T14:30:25.296Z,93.30
2022-11-01T14:32:57.280Z,93.40
2022-11-01T14:35:34.291Z,93.50
2022-11-01T14:38:07.614Z,93.50
2022-11-01T14:40:43.252Z,93.60
2022-11-01T14:43:14.742Z,93.50
2022-11-01T14:45:46.429Z,93.40
2022-11-01T14:48:24.207Z,93.40
2022-11-01T14:50:54.905Z,93.40
2022-11-01T14:53:37.479Z,93.40
2022-11-01T14:56:15.963Z,93.40
2022-11-01T14:58:43.734Z,93.60
2022-11-01T15:01:17.419Z,93.90
2022-11-01T15:03:54.028Z,94.10
2022-11-01T15:06:24.598Z,94.20
2022-11-01T15:08:51.364Z,94.30
2022-11-01T15:11:18.260Z,94.40
2022-11-01T15:13:46.656Z,94.40
2022-11-01T15:16:24.064Z,94.50
2022-11-01T15:18:54.951Z,94.50
2022-11-01T15:21:27.302Z,94.60
2022-11-01T15:23:58.344Z,94.70
2022-11-01T15:26:28.084Z,94.70
2022-11-01T15:29:01.276Z,94.70
2022-11-01T15:31:29.040Z,94.80
2022-11-01T15:34:04.808Z,94.80
2022-11-01T15:36:39.337Z,94.70
2022-11-01T15:39:25.363Z,94.70
2022-11-01T15:41:56.966Z,94.70
2022-11-01T15:44:29.739Z,95.10
2022-11-01T15:47:06.323Z,94.80
2022-11-01T15:49:55.530Z,94.90
2022-11-01T15:52:25.789Z,95.00
2022-11-01T15:55:06.636Z,95.00
2022-11-01T15:57:42.447Z,95.00
2022-11-01T16:00:24.188Z,95.10
2022-11-01T16:03:10.832Z,95.10
2022-11-01T16:05:44.806Z,92.80
2022-11-01T16:08:22.542Z,90.40
2022-11-01T16:10:49.690Z,89.10
2022-11-01T16:13:18.903Z,88.30
2022-11-01T16:16:03.848Z,87.50
2022-11-01T16:18:35.274Z,87.00
2022-11-01T16:21:08.874Z,86.80
2022-11-01T16:23:35.708Z,86.30
2022-11-01T16:26:06.321Z,86.20
2022-11-01T16:28:43.120Z,86.10
2022-11-01T16:31:22.406Z,85.80
2022-11-01T16:33:49.924Z,83.30
2022-11-01T16:36:19.940Z,1.00
2022-11-01T16:38:48.242Z,1.00
2022-11-01T16:41:39.631Z,1.00
2022-11-01T16:44:18.876Z,1.00
2022-11-01T16:46:45.847Z,99.90
2022-11-01T16:49:22.950Z,1.00
2022-11-01T16:51:50.593Z,1.00
2022-11-01T16:54:17.481Z,1.00
2022-11-01T16:56:50.264Z,1.00
2022-11-01T16:59:37.989Z,1.00
2022-11-01T17:02:24.899Z,1.00
2022-11-01T17:05:12.808Z,1.00
2022-11-01T17:07:39.580Z,1.00
2022-11-01T17:10:22.228Z,1.00
2022-11-01T17:12:49.152Z,1.00
2022-11-01T17:15:16.146Z,1.00
2022-11-01T17:17:45.190Z,1.00
2022-11-01T17:20:22.850Z,1.00
2022-11-01T17:22:51.699Z,1.00
2022-11-01T17:25:21.172Z,1.00
2022-11-01T17:27:51.113Z,1.00
2022-11-01T17:30:19.356Z,1.00
2022-11-01T17:32:46.024Z,1.00
2022-11-01T17:35:13.012Z,1.00
2022-11-01T17:37:40.164Z,1.00
2022-11-01T17:40:18.571Z,1.00
2022-11-01T17:42:45.426Z,1.00
2022-11-01T17:45:13.364Z,1.00
2022-11-01T17:47:40.490Z,1.00
2022-11-01T17:50:11.911Z,1.00
2022-11-01T17:53:27.077Z,1.00
2022-11-01T17:55:57.715Z,1.00
2022-11-01T17:58:25.071Z,1.00
2022-11-01T18:00:51.828Z,1.00
2022-11-01T18:03:18.546Z,1.00
2022-11-01T18:05:45.196Z,1.00
2022-11-01T18:08:17.173Z,1.00
2022-11-01T18:10:57.071Z,1.00
2022-11-01T18:13:45.028Z,1.00
2022-11-01T18:16:26.819Z,1.00
2022-11-01T18:19:12.216Z,1.00
2022-11-01T18:21:49.993Z,1.00
2022-11-01T18:24:24.727Z,1.00
2022-11-01T18:26:51.550Z,1.00
2022-11-01T18:29:23.433Z,1.00
2022-11-01T18:32:05.262Z,1.00
2022-11-01T18:34:54.163Z,1.00
2022-11-01T18:37:45.249Z,1.00
2022-11-01T18:40:24.633Z,1.00
2022-11-01T18:42:53.232Z,1.00
2022-11-01T18:45:28.527Z,1.00
2022-11-01T18:48:02.788Z,1.00
2022-11-01T18:50:29.665Z,1.00
2022-11-01T18:53:17.865Z,1.00
2022-11-01T18:55:47.801Z,1.00
2022-11-01T18:58:20.827Z,1.00
2022-11-01T19:01:08.525Z,1.00
2022-11-01T19:03:35.698Z,1.00
2022-11-01T19:06:22.051Z,1.00
2022-11-01T19:08:57.166Z,1.00
2022-11-01T19:11:26.824Z,1.00
2022-11-01T19:13:54.267Z,1.00
2022-11-01T19:16:21.440Z,1.00
2022-11-01T19:18:50.065Z,1.00
2022-11-01T19:21:19.262Z,27.00
2022-11-01T19:23:57.772Z,1.00
2022-11-01T19:26:31.999Z,1.00
2022-11-01T19:28:58.967Z,1.00
2022-11-01T19:31:36.793Z,1.00
2022-11-01T19:34:09.629Z,1.00
2022-11-01T19:36:42.915Z,1.00
2022-11-01T19:39:30.331Z,1.00
2022-11-01T19:42:29.645Z,1.00
2022-11-01T19:44:59.602Z,1.00
2022-11-01T19:47:38.262Z,1.00
2022-11-01T19:50:15.683Z,1.00
2022-11-01T19:52:47.350Z,1.00
2022-11-01T19:55:36.719Z,1.00
2022-11-01T19:58:24.814Z,1.00
2022-11-01T20:01:14.921Z,1.00
2022-11-01T20:03:48.172Z,1.00
2022-11-01T20:06:35.921Z,1.00
2022-11-01T20:09:06.449Z,1.00
2022-11-01T20:11:33.814Z,99.90
2022-11-01T20:14:01.230Z,99.90
2022-11-01T20:16:28.346Z,1.00
2022-11-01T20:18:55.128Z,1.00
2022-11-01T20:21:21.886Z,99.90
2022-11-01T20:23:49.030Z,80.20
2022-11-01T20:26:15.826Z,1.00
2022-11-01T20:28:42.767Z,1.00
2022-11-01T20:31:09.764Z,1.00
2022-11-01T20:33:36.454Z,1.00
2022-11-01T20:36:09.856Z,1.00
2022-11-01T20:38:37.896Z,1.00
2022-11-01T20:41:04.738Z,1.00
2022-11-01T20:43:31.551Z,1.00
2022-11-01T20:45:58.538Z,1.00
2022-11-01T20:48:25.709Z,1.00
2022-11-01T20:50:53.522Z,1.00
2022-11-01T20:53:20.253Z,1.00
2022-11-01T20:55:46.911Z,1.00
2022-11-01T20:58:14.153Z,1.00
2022-11-01T21:00:40.898Z,1.00
2022-11-01T21:03:18.934Z,1.00
2022-11-01T21:05:48.095Z,1.00
2022-11-01T21:08:26.147Z,1.00
2022-11-01T21:10:56.239Z,1.00
2022-11-01T21:13:25.800Z,1.00
2022-11-01T21:15:54.313Z,1.00
2022-11-01T21:18:20.951Z,1.00
2022-11-01T21:20:49.195Z,1.00
2022-11-01T21:23:35.668Z,1.00
2022-11-01T21:26:22.910Z,1.00
2022-11-01T21:29:01.798Z,1.00
2022-11-01T21:31:34.215Z,1.00
2022-11-01T21:34:16.205Z,1.00
2022-11-01T21:36:46.886Z,1.00
2022-11-01T21:39:32.947Z,1.00
2022-11-01T21:42:18.216Z,1.00
2022-11-01T21:44:45.651Z,1.00
2022-11-01T21:47:19.203Z,1.00
2022-11-01T21:49:46.449Z,1.00
2022-11-01T21:52:13.732Z,1.00
2022-11-01T21:54:41.645Z,1.00
2022-11-01T21:57:10.347Z,1.00
2022-11-01T21:59:37.702Z,1.00
2022-11-01T22:02:06.263Z,1.00
2022-11-01T22:04:33.606Z,1.00
2022-11-01T22:07:02.044Z,1.00
2022-11-01T22:09:28.798Z,1.00
2022-11-01T22:11:55.558Z,1.00
2022-11-01T22:14:23.145Z,1.00
2022-11-01T22:16:50.051Z,1.00
2022-11-01T22:19:16.730Z,1.00
2022-11-01T22:24:10.513Z,1.00
2022-11-01T22:26:37.187Z,1.00
2022-11-01T22:29:03.870Z,1.00
2022-11-01T22:31:30.554Z,1.00
2022-11-01T22:33:57.559Z,1.00
2022-11-01T22:36:29.382Z,1.00
2022-11-01T22:38:58.127Z,1.00
2022-11-01T22:41:31.871Z,1.00
2022-11-01T22:44:16.086Z,1.00
2022-11-01T22:46:58.044Z,1.00
2022-11-01T22:49:37.449Z,1.00
2022-11-01T22:52:22.583Z,1.00
2022-11-01T22:54:56.550Z,1.00
2022-11-01T22:57:27.507Z,1.00
2022-11-01T22:59:59.131Z,1.00
2022-11-01T23:02:30.391Z,1.00
2022-11-01T23:05:22.048Z,1.00
2022-11-01T23:07:50.635Z,1.00
2022-11-01T23:10:29.556Z,1.00
2022-11-01T23:13:29.615Z,1.00
2022-11-01T23:16:11.205Z,1.00
2022-11-01T23:18:40.426Z,1.00
2022-11-01T23:21:08.873Z,1.00
2022-11-01T23:23:37.237Z,1.00
2022-11-01T23:26:04.493Z,1.00
2022-11-01T23:28:35.060Z,1.00
2022-11-01T23:31:04.702Z,1.00
2022-11-01T23:33:39.919Z,1.00
2022-11-01T23:36:20.025Z,1.00
2022-11-01T23:38:52.052Z,1.00
2022-11-01T23:41:32.734Z,1.00
2022-11-01T23:44:01.916Z,1.00
2022-11-01T23:46:29.064Z,1.00
2022-11-01T23:49:01.673Z,1.00
2022-11-01T23:51:29.279Z,1.00
2022-11-01T23:53:57.204Z,1.00
2022-11-01T23:56:24.049Z,1.00
2022-11-01T23:58:59.301Z,1.00
